createdAt,value
2019-05-13T00:00:16.793Z,2.10
2019-05-13T00:02:24.004Z,2.15
2019-05-13T00:04:30.776Z,2.10
2019-05-13T00:06:50.170Z,1.90
2019-05-13T00:08:45.389Z,1.77
2019-05-13T00:10:53.974Z,2.00
2019-05-13T00:13:00.040Z,2.10
2019-05-13T00:15:08.112Z,2.02
2019-05-13T00:17:14.809Z,1.90
2019-05-13T00:19:23.263Z,1.65
2019-05-13T00:21:29.443Z,2.17
2019-05-13T00:23:35.926Z,1.82
2019-05-13T00:25:44.436Z,1.92
2019-05-13T00:27:50.786Z,1.87
2019-05-13T00:29:57.235Z,1.90
2019-05-13T00:32:04.770Z,1.95
2019-05-13T00:34:14.168Z,1.77
2019-05-13T00:36:19.683Z,1.90
2019-05-13T00:38:26.233Z,2.15
2019-05-13T00:40:33.889Z,1.80
2019-05-13T00:42:40.736Z,1.70
2019-05-13T00:44:47.218Z,1.80
2019-05-13T00:46:53.893Z,1.80
2019-05-13T00:49:00.477Z,2.10
2019-05-13T00:51:06.923Z,1.85
2019-05-13T00:53:13.639Z,1.70
2019-05-13T00:55:20.156Z,1.67
2019-05-13T00:57:26.612Z,1.87
2019-05-13T00:59:33.924Z,1.95
2019-05-13T01:01:40.659Z,2.20
2019-05-13T01:03:48.132Z,1.60
2019-05-13T01:05:54.523Z,1.75
2019-05-13T01:08:00.953Z,1.67
2019-05-13T01:10:07.669Z,2.00
2019-05-13T01:12:14.193Z,1.77
2019-05-13T01:14:20.615Z,1.72
2019-05-13T01:16:27.067Z,1.62
2019-05-13T01:18:34.142Z,1.72
2019-05-13T01:20:40.751Z,1.62
2019-05-13T01:22:47.181Z,1.65
2019-05-13T01:24:54.174Z,1.60
2019-05-13T01:27:03.542Z,1.57
2019-05-13T01:29:09.071Z,1.90
2019-05-13T01:31:15.541Z,2.00
2019-05-13T01:33:23.536Z,1.70
2019-05-13T01:35:30.356Z,1.70
2019-05-13T01:37:42.119Z,1.62
2019-05-13T01:39:45.064Z,1.87
2019-05-13T01:41:53.549Z,1.62
2019-05-13T01:43:59.740Z,1.75
2019-05-13T01:46:07.472Z,1.70
2019-05-13T01:48:14.409Z,1.75
2019-05-13T01:50:21.014Z,1.98
2019-05-13T01:52:27.510Z,1.67
2019-05-13T01:54:34.232Z,1.67
2019-05-13T01:56:40.818Z,1.70
2019-05-13T01:58:47.252Z,1.70
2019-05-13T02:00:55.267Z,1.50
2019-05-13T02:03:03.906Z,1.62
2019-05-13T02:05:10.357Z,1.80
2019-05-13T02:07:16.821Z,1.80
2019-05-13T02:09:24.428Z,1.70
2019-05-13T02:11:31.036Z,1.82
2019-05-13T02:13:37.512Z,1.55
2019-05-13T02:15:45.242Z,1.70
2019-05-13T02:17:53.701Z,2.05
2019-05-13T02:19:59.888Z,1.70
2019-05-13T02:22:06.438Z,1.72
2019-05-13T02:24:14.419Z,1.80
2019-05-13T02:26:21.171Z,1.67
2019-05-13T02:28:27.549Z,1.75
2019-05-13T02:30:34.905Z,1.50
2019-05-13T02:32:42.831Z,1.80
2019-05-13T02:34:49.541Z,2.42
2019-05-13T02:36:56.013Z,1.85
2019-05-13T02:39:02.895Z,1.60
2019-05-13T02:41:09.591Z,1.70
2019-05-13T02:43:16.134Z,1.52
2019-05-13T02:45:22.879Z,1.82
2019-05-13T02:47:29.330Z,1.75
2019-05-13T02:49:35.836Z,1.40
2019-05-13T02:51:43.124Z,1.57
2019-05-13T02:53:52.330Z,1.50
2019-05-13T02:55:59.072Z,1.60
2019-05-13T02:58:05.658Z,1.55
2019-05-13T03:00:13.551Z,1.47
2019-05-13T03:02:22.366Z,1.07
2019-05-13T03:04:28.318Z,1.70
2019-05-13T03:06:34.743Z,1.35
2019-05-13T03:08:49.360Z,1.60
2019-05-13T03:10:52.711Z,1.60
2019-05-13T03:12:57.724Z,1.35
2019-05-13T03:15:05.692Z,1.42
2019-05-13T03:17:13.841Z,1.20
2019-05-13T03:19:22.450Z,1.30
2019-05-13T03:21:28.576Z,1.33
2019-05-13T03:23:35.130Z,1.22
2019-05-13T03:25:42.948Z,1.60
2019-05-13T03:27:49.641Z,1.40
2019-05-13T03:29:56.882Z,1.30
2019-05-13T03:32:06.694Z,1.32
2019-05-13T03:34:15.476Z,1.40
2019-05-13T03:36:25.277Z,1.20
2019-05-13T03:38:28.006Z,1.50
2019-05-13T03:40:34.938Z,1.22
2019-05-13T03:42:45.506Z,1.10
2019-05-13T03:44:56.823Z,1.30
2019-05-13T03:47:04.681Z,1.20
2019-05-13T03:49:14.199Z,1.20
2019-05-13T03:51:22.249Z,1.02
2019-05-13T03:53:28.912Z,1.10
2019-05-13T03:55:35.977Z,1.30
2019-05-13T03:57:42.782Z,1.15
2019-05-13T03:59:52.420Z,1.27
2019-05-13T04:01:57.762Z,1.57
2019-05-13T04:04:05.344Z,1.27
2019-05-13T04:06:13.582Z,1.30
2019-05-13T04:08:22.711Z,1.33
2019-05-13T04:10:29.165Z,1.30
2019-05-13T04:12:38.701Z,2.33
2019-05-13T04:14:45.536Z,1.60
2019-05-13T04:16:53.191Z,1.30
2019-05-13T04:19:02.573Z,1.20
2019-05-13T04:21:08.532Z,1.20
2019-05-13T04:23:15.165Z,1.52
2019-05-13T04:25:23.220Z,1.27
2019-05-13T04:27:32.702Z,1.30
2019-05-13T04:29:42.936Z,1.40
2019-05-13T04:31:49.106Z,1.32
2019-05-13T04:33:57.968Z,1.32
2019-05-13T04:36:04.663Z,1.27
2019-05-13T04:38:13.190Z,5.90
2019-05-13T04:40:22.645Z,1.12
2019-05-13T04:42:27.770Z,1.40
2019-05-13T04:44:34.388Z,1.30
2019-05-13T04:46:43.451Z,1.20
2019-05-13T04:48:49.107Z,1.53
2019-05-13T04:50:56.511Z,1.42
2019-05-13T04:53:03.506Z,1.05
2019-05-13T04:55:13.150Z,1.47
2019-05-13T04:57:18.983Z,1.40
2019-05-13T04:59:25.516Z,1.20
2019-05-13T05:02:04.918Z,1.42
2019-05-13T05:04:31.049Z,1.20
2019-05-13T05:07:18.213Z,1.37
2019-05-13T05:10:12.998Z,1.27
2019-05-13T05:12:42.343Z,1.62
2019-05-13T05:15:18.007Z,1.37
2019-05-13T05:17:43.040Z,1.32
2019-05-13T05:20:25.094Z,1.60
2019-05-13T05:23:03.196Z,1.55
2019-05-13T05:25:45.850Z,1.67
2019-05-13T05:28:14.773Z,1.60
2019-05-13T05:32:48.772Z,1.20
2019-05-13T05:35:32.355Z,1.50
2019-05-13T05:37:49.362Z,1.50
2019-05-13T05:39:58.886Z,1.70
2019-05-13T05:42:07.790Z,1.45
2019-05-13T05:44:16.382Z,2.30
2019-05-13T05:46:25.139Z,1.70
2019-05-13T05:48:35.311Z,1.45
2019-05-13T05:50:44.659Z,1.52
2019-05-13T05:52:54.558Z,1.50
2019-05-13T05:55:02.559Z,1.40
2019-05-13T05:57:12.118Z,1.30
2019-05-13T05:59:21.934Z,1.50
2019-05-13T06:01:32.555Z,1.45
2019-05-13T06:03:41.712Z,1.90
2019-05-13T06:05:51.220Z,1.50
2019-05-13T06:07:57.909Z,2.42
2019-05-13T06:10:06.131Z,1.62
2019-05-13T06:12:13.725Z,1.40
2019-05-13T06:14:21.912Z,1.40
2019-05-13T06:16:28.687Z,1.40
2019-05-13T06:18:35.234Z,1.15
2019-05-13T06:20:41.986Z,1.30
2019-05-13T06:22:48.556Z,1.55
2019-05-13T06:24:55.071Z,1.40
2019-05-13T06:27:02.200Z,1.30
2019-05-13T06:29:11.649Z,1.47
2019-05-13T06:31:18.420Z,1.25
2019-05-13T06:33:24.871Z,1.20
2019-05-13T06:35:32.346Z,1.30
2019-05-13T06:37:41.294Z,1.42
2019-05-13T06:39:47.996Z,1.47
2019-05-13T06:41:54.484Z,1.35
2019-05-13T06:44:02.108Z,1.57
2019-05-13T06:46:09.193Z,1.87
2019-05-13T06:48:15.583Z,2.08
2019-05-13T06:50:22.068Z,1.90
2019-05-13T06:52:28.497Z,2.08
2019-05-13T06:54:34.948Z,1.27
2019-05-13T06:56:42.805Z,1.55
2019-05-13T06:58:51.828Z,1.80
2019-05-13T07:00:58.713Z,1.42
2019-05-13T07:03:05.810Z,1.52
2019-05-13T07:05:12.363Z,2.25
2019-05-13T07:07:18.839Z,1.70
2019-05-13T07:09:25.343Z,1.70
2019-05-13T07:11:31.787Z,1.77
2019-05-13T07:13:38.191Z,1.55
2019-05-13T07:15:44.865Z,2.33
2019-05-13T07:17:52.064Z,2.40
2019-05-13T07:19:58.533Z,2.67
2019-05-13T07:22:05.191Z,3.60
2019-05-13T07:24:12.740Z,2.95
2019-05-13T07:26:21.952Z,2.65
2019-05-13T07:28:27.759Z,2.50
2019-05-13T07:30:43.459Z,5.00
2019-05-13T07:32:52.428Z,2.47
2019-05-13T07:34:59.141Z,2.17
2019-05-13T07:37:05.733Z,2.30
2019-05-13T07:39:12.402Z,2.47
2019-05-13T07:41:33.147Z,2.15
2019-05-13T07:43:27.017Z,3.50
2019-05-13T07:45:34.188Z,2.92
2019-05-13T07:47:41.699Z,3.10
2019-05-13T07:49:48.489Z,8.63
2019-05-13T07:51:55.120Z,4.45
2019-05-13T07:54:02.377Z,3.65
2019-05-13T07:56:09.098Z,1.92
2019-05-13T07:58:15.556Z,1.82
2019-05-13T08:00:22.709Z,2.00
2019-05-13T08:02:31.777Z,2.17
2019-05-13T08:04:37.366Z,2.02
2019-05-13T08:06:43.983Z,1.85
2019-05-13T08:08:52.295Z,1.95
2019-05-13T08:11:01.087Z,2.07
2019-05-13T08:13:06.944Z,1.97
2019-05-13T08:15:14.392Z,1.80
2019-05-13T08:17:22.487Z,4.50
2019-05-13T08:19:29.146Z,3.10
2019-05-13T08:21:36.679Z,2.10
2019-05-13T08:23:43.087Z,1.62
2019-05-13T08:25:51.446Z,1.75
2019-05-13T08:27:57.685Z,2.30
2019-05-13T08:30:08.761Z,2.02
2019-05-13T08:32:15.155Z,2.25
2019-05-13T08:34:22.547Z,1.85
2019-05-13T08:36:29.202Z,1.98
2019-05-13T08:38:35.590Z,2.12
2019-05-13T08:40:42.594Z,1.80
2019-05-13T08:42:49.168Z,4.97
2019-05-13T08:44:55.627Z,8.75
2019-05-13T08:47:03.328Z,6.10
2019-05-13T08:49:11.874Z,3.50
2019-05-13T08:51:18.099Z,2.20
2019-05-13T08:53:25.822Z,2.30
2019-05-13T08:55:32.369Z,2.20
2019-05-13T08:57:38.764Z,3.20
2019-05-13T08:59:45.331Z,2.87
2019-05-13T09:01:52.129Z,2.37
2019-05-13T09:04:01.847Z,2.75
2019-05-13T09:06:06.950Z,3.07
2019-05-13T09:08:16.681Z,2.67
2019-05-13T09:10:23.299Z,3.00
2019-05-13T09:12:35.715Z,2.75
2019-05-13T09:14:38.297Z,4.22
2019-05-13T09:16:44.988Z,4.25
2019-05-13T09:18:52.192Z,4.37
2019-05-13T09:20:58.890Z,4.00
2019-05-13T09:23:06.178Z,3.27
2019-05-13T09:25:12.793Z,3.60
2019-05-13T09:27:19.413Z,2.55
2019-05-13T09:29:25.906Z,2.25
2019-05-13T09:31:32.588Z,1.80
2019-05-13T09:33:41.653Z,2.00
2019-05-13T09:35:50.197Z,1.77
2019-05-13T09:37:55.436Z,2.30
2019-05-13T09:40:02.508Z,2.15
2019-05-13T09:42:09.203Z,2.30
2019-05-13T09:44:15.743Z,2.90
2019-05-13T09:46:22.706Z,2.22
2019-05-13T09:48:31.736Z,2.60
2019-05-13T09:50:37.554Z,3.30
2019-05-13T09:52:44.139Z,2.90
2019-05-13T09:54:52.402Z,3.00
2019-05-13T09:56:58.655Z,2.80
2019-05-13T09:59:05.265Z,2.70
2019-05-13T10:01:12.621Z,2.72
2019-05-13T10:03:24.343Z,2.60
2019-05-13T10:05:27.664Z,2.60
2019-05-13T10:07:34.185Z,2.60
2019-05-13T10:09:42.903Z,2.27
2019-05-13T10:11:51.755Z,2.80
2019-05-13T10:13:57.094Z,4.50
2019-05-13T10:16:03.735Z,3.17
2019-05-13T10:18:12.519Z,3.80
2019-05-13T10:20:23.059Z,2.77
2019-05-13T10:22:31.781Z,2.65
2019-05-13T10:24:38.149Z,2.73
2019-05-13T10:26:45.055Z,3.40
2019-05-13T10:28:51.962Z,3.10
2019-05-13T10:30:58.674Z,3.20
2019-05-13T10:33:06.368Z,3.20
2019-05-13T10:35:14.774Z,4.28
2019-05-13T10:37:22.155Z,4.17
2019-05-13T10:39:29.155Z,3.10
2019-05-13T10:41:35.701Z,3.70
2019-05-13T10:43:44.249Z,3.87
2019-05-13T10:45:52.215Z,3.60
2019-05-13T10:47:58.677Z,3.47
2019-05-13T10:50:07.488Z,3.55
2019-05-13T10:52:14.250Z,4.22
2019-05-13T10:54:21.695Z,4.30
2019-05-13T10:56:28.443Z,3.95
2019-05-13T10:58:34.911Z,4.12
2019-05-13T11:00:54.301Z,4.70
2019-05-13T11:03:00.804Z,5.20
2019-05-13T11:05:07.612Z,5.03
2019-05-13T11:07:14.245Z,4.40
2019-05-13T11:09:21.904Z,5.40
2019-05-13T11:11:28.876Z,6.05
2019-05-13T11:13:54.077Z,5.03
2019-05-13T11:15:45.326Z,5.05
2019-05-13T11:17:52.028Z,5.12
2019-05-13T11:19:58.430Z,4.33
2019-05-13T11:22:05.357Z,4.12
2019-05-13T11:24:12.652Z,4.37
2019-05-13T11:26:21.476Z,3.92
2019-05-13T11:28:27.514Z,4.03
2019-05-13T11:30:34.402Z,3.90
2019-05-13T11:32:42.721Z,4.00
2019-05-13T11:34:52.718Z,4.83
2019-05-13T11:36:58.148Z,4.50
2019-05-13T11:39:07.934Z,4.10
2019-05-13T11:41:14.580Z,4.12
2019-05-13T11:43:22.220Z,3.70
2019-05-13T11:45:31.555Z,3.83
2019-05-13T11:47:37.752Z,3.87
2019-05-13T11:49:44.180Z,4.30
2019-05-13T11:51:51.921Z,3.55
2019-05-13T11:53:58.556Z,3.30
2019-05-13T11:56:05.214Z,3.60
2019-05-13T11:58:13.907Z,3.60
2019-05-13T12:00:53.518Z,3.65
2019-05-13T12:03:03.596Z,3.27
2019-05-13T12:05:10.958Z,3.63
2019-05-13T12:09:23.070Z,3.98
2019-05-13T12:11:33.063Z,3.35
2019-05-13T12:13:37.724Z,3.63
2019-05-13T12:15:49.424Z,3.90
2019-05-13T12:17:53.012Z,3.85
2019-05-13T12:20:02.290Z,4.08
2019-05-13T12:22:07.746Z,3.70
2019-05-13T12:24:14.282Z,3.72
2019-05-13T12:26:23.439Z,3.67
2019-05-13T12:28:28.888Z,3.98
2019-05-13T12:30:35.348Z,4.37
2019-05-13T12:32:43.729Z,3.92
2019-05-13T12:34:52.575Z,4.10
2019-05-13T12:36:58.596Z,3.70
2019-05-13T12:39:07.702Z,4.78
2019-05-13T12:41:14.243Z,4.40
2019-05-13T12:43:24.085Z,4.60
2019-05-13T12:45:29.133Z,4.47
2019-05-13T12:47:35.662Z,4.33
2019-05-13T12:49:43.761Z,3.42
2019-05-13T12:51:51.660Z,3.70
2019-05-13T12:53:58.432Z,3.75
2019-05-13T12:56:04.948Z,3.60
2019-05-13T12:58:12.279Z,3.98
2019-05-13T13:00:23.346Z,4.10
2019-05-13T13:02:27.690Z,3.92
2019-05-13T13:04:34.170Z,3.58
2019-05-13T13:06:45.042Z,3.27
2019-05-13T13:08:50.571Z,3.15
2019-05-13T13:10:57.149Z,3.67
2019-05-13T13:13:03.665Z,3.10
2019-05-13T13:15:35.952Z,2.87
2019-05-13T13:17:24.119Z,2.77
2019-05-13T13:19:29.334Z,3.80
2019-05-13T13:21:37.699Z,3.12
2019-05-13T13:23:43.887Z,3.00
2019-05-13T13:25:54.139Z,4.20
2019-05-13T13:28:09.859Z,2.67
2019-05-13T13:30:08.881Z,3.02
2019-05-13T13:32:15.446Z,3.37
2019-05-13T13:34:26.035Z,3.90
2019-05-13T13:36:33.437Z,3.70
2019-05-13T13:38:38.370Z,3.20
2019-05-13T13:40:45.977Z,3.70
2019-05-13T13:42:53.183Z,2.90
2019-05-13T13:45:04.711Z,2.75
2019-05-13T13:47:07.989Z,2.87
2019-05-13T13:49:14.605Z,3.25
2019-05-13T13:51:26.608Z,3.17
2019-05-13T13:53:29.134Z,3.17
2019-05-13T13:55:35.727Z,2.40
2019-05-13T13:57:44.643Z,2.70
2019-05-13T14:00:16.181Z,2.90
2019-05-13T14:01:58.568Z,3.17
2019-05-13T14:04:05.109Z,3.08
2019-05-13T14:06:12.889Z,2.72
2019-05-13T14:08:21.661Z,2.45
2019-05-13T14:10:27.649Z,2.97
2019-05-13T14:12:34.118Z,2.22
2019-05-13T14:14:41.472Z,2.33
2019-05-13T14:16:48.132Z,2.40
2019-05-13T14:18:54.563Z,2.70
2019-05-13T14:21:03.347Z,2.58
2019-05-13T14:23:09.366Z,2.70
2019-05-13T14:25:16.220Z,3.08
2019-05-13T14:27:23.013Z,2.58
2019-05-13T14:29:40.701Z,2.50
2019-05-13T14:31:41.209Z,2.60
2019-05-13T14:33:46.960Z,2.30
2019-05-13T14:35:53.796Z,2.60
2019-05-13T14:38:02.332Z,2.60
2019-05-13T14:40:12.185Z,2.50
2019-05-13T14:42:18.258Z,2.52
2019-05-13T14:44:24.660Z,2.27
2019-05-13T14:46:46.662Z,2.70
2019-05-13T14:48:40.857Z,2.87
2019-05-13T14:52:54.040Z,3.98
2019-05-13T14:55:02.192Z,3.33
2019-05-13T14:57:11.883Z,3.92
2019-05-13T14:59:16.890Z,3.53
2019-05-13T15:01:24.365Z,2.92
2019-05-13T15:03:32.663Z,2.62
2019-05-13T15:05:38.925Z,2.60
2019-05-13T15:07:45.346Z,3.42
2019-05-13T15:09:51.828Z,3.55
2019-05-13T15:11:58.219Z,3.08
2019-05-13T15:14:04.782Z,2.98
2019-05-13T15:16:11.244Z,3.45
2019-05-13T15:18:18.084Z,3.37
2019-05-13T15:20:24.662Z,3.80
2019-05-13T15:22:31.963Z,3.42
2019-05-13T15:24:41.126Z,2.90
2019-05-13T15:26:51.549Z,2.98
2019-05-13T15:28:57.785Z,3.25
2019-05-13T15:31:04.660Z,3.27
2019-05-13T15:33:11.241Z,2.85
2019-05-13T15:35:17.838Z,3.02
2019-05-13T15:37:24.300Z,3.20
2019-05-13T15:39:31.604Z,2.47
2019-05-13T15:41:38.444Z,2.40
2019-05-13T15:43:44.985Z,2.50
2019-05-13T15:45:51.552Z,2.40
2019-05-13T15:47:58.053Z,2.52
2019-05-13T15:50:05.892Z,2.55
2019-05-13T15:52:12.353Z,3.15
2019-05-13T15:54:18.815Z,2.30
2019-05-13T15:56:25.217Z,1.90
2019-05-13T15:58:38.951Z,2.05
2019-05-13T16:00:41.930Z,2.33
2019-05-13T16:02:47.829Z,1.98
2019-05-13T16:05:05.670Z,1.82
2019-05-13T16:07:02.577Z,2.27
2019-05-13T16:09:11.508Z,2.02
2019-05-13T16:11:17.467Z,2.02
2019-05-13T16:13:24.309Z,1.90
2019-05-13T16:15:32.157Z,2.35
2019-05-13T16:17:44.105Z,2.40
2019-05-13T16:19:46.912Z,2.72
2019-05-13T16:21:53.435Z,2.30
2019-05-13T16:24:02.356Z,2.30
2019-05-13T16:26:08.121Z,3.47
2019-05-13T16:28:14.665Z,3.02
2019-05-13T16:30:22.245Z,2.52
2019-05-13T16:32:28.748Z,2.35
2019-05-13T16:34:35.469Z,2.77
2019-05-13T16:36:42.969Z,2.40
2019-05-13T16:38:49.784Z,2.62
2019-05-13T16:40:56.487Z,2.42
2019-05-13T16:43:02.875Z,2.52
2019-05-13T16:45:12.549Z,2.47
2019-05-13T16:47:21.288Z,2.25
2019-05-13T16:49:27.927Z,2.25
2019-05-13T16:51:34.562Z,2.00
2019-05-13T16:53:42.129Z,2.00
2019-05-13T16:55:50.873Z,2.22
2019-05-13T16:57:56.960Z,2.22
2019-05-13T17:00:04.359Z,1.75
2019-05-13T17:02:12.677Z,2.25
2019-05-13T17:04:21.342Z,2.27
2019-05-13T17:06:27.462Z,2.50
2019-05-13T17:08:33.949Z,2.92
2019-05-13T17:10:42.016Z,3.17
2019-05-13T17:12:48.495Z,2.30
2019-05-13T17:14:54.898Z,2.50
2019-05-13T17:17:01.419Z,2.50
2019-05-13T17:19:08.968Z,2.67
2019-05-13T17:21:15.491Z,3.15
2019-05-13T17:23:21.963Z,4.42
2019-05-13T17:25:28.506Z,3.60
2019-05-13T17:27:35.015Z,2.90
2019-05-13T17:29:41.475Z,2.50
2019-05-13T17:31:47.994Z,2.90
2019-05-13T17:33:54.561Z,3.40
2019-05-13T17:36:01.853Z,3.42
2019-05-13T17:38:08.690Z,4.17
2019-05-13T17:40:15.424Z,4.05
2019-05-13T17:42:25.092Z,4.87
2019-05-13T17:44:32.071Z,5.25
2019-05-13T17:46:38.567Z,4.87
2019-05-13T17:48:45.025Z,5.42
2019-05-13T17:50:52.101Z,5.40
2019-05-13T17:53:02.132Z,5.97
2019-05-13T17:55:08.857Z,5.30
2019-05-13T17:57:15.455Z,6.17
2019-05-13T17:59:21.992Z,5.25
2019-05-13T18:01:28.451Z,6.00
2019-05-13T18:03:34.934Z,16.15
2019-05-13T18:05:42.172Z,7.10
2019-05-13T18:07:48.674Z,4.97
2019-05-13T18:09:55.063Z,5.15
2019-05-13T18:12:02.417Z,6.58
2019-05-13T18:14:11.245Z,4.95
2019-05-13T18:16:17.327Z,4.60
2019-05-13T18:18:38.637Z,3.83
2019-05-13T18:20:32.244Z,4.37
2019-05-13T18:22:41.903Z,5.83
2019-05-13T18:24:47.787Z,4.00
2019-05-13T18:26:55.718Z,4.37
2019-05-13T18:29:02.247Z,4.37
2019-05-13T18:31:08.834Z,3.83
2019-05-13T18:33:15.438Z,3.98
2019-05-13T18:35:22.142Z,3.77
2019-05-13T18:37:28.713Z,4.45
2019-05-13T18:39:35.262Z,4.35
2019-05-13T18:41:41.738Z,4.17
2019-05-13T18:43:48.263Z,4.00
2019-05-13T18:45:54.780Z,4.53
2019-05-13T18:48:01.782Z,4.97
2019-05-13T18:50:11.586Z,7.58
2019-05-13T18:52:18.318Z,7.20
2019-05-13T18:54:24.815Z,7.62
2019-05-13T18:56:32.279Z,8.50
2019-05-13T18:58:39.190Z,8.28
2019-05-13T19:00:45.789Z,9.90
2019-05-13T19:02:52.260Z,9.78
2019-05-13T19:04:58.763Z,9.78
2019-05-13T19:07:07.742Z,9.48
2019-05-13T19:09:13.604Z,10.05
2019-05-13T19:11:22.227Z,11.50
2019-05-13T19:13:28.990Z,12.58
2019-05-13T19:15:35.710Z,11.95
2019-05-13T19:17:43.359Z,12.10
2019-05-13T19:19:51.506Z,14.27
2019-05-13T19:21:58.715Z,13.62
2019-05-13T19:24:05.340Z,13.55
2019-05-13T19:26:13.719Z,14.68
2019-05-13T19:28:26.581Z,16.48
2019-05-13T19:30:33.038Z,18.77
2019-05-13T19:32:41.640Z,20.23
2019-05-13T19:34:47.840Z,19.03
2019-05-13T19:36:54.364Z,20.15
2019-05-13T19:39:01.793Z,19.55
2019-05-13T19:41:11.673Z,20.77
2019-05-13T19:43:18.053Z,19.10
2019-05-13T19:45:24.540Z,18.70
2019-05-13T19:47:31.149Z,18.50
2019-05-13T19:49:37.756Z,19.95
2019-05-13T19:51:45.627Z,18.42
2019-05-13T19:53:52.168Z,17.20
2019-05-13T19:55:58.568Z,16.57
2019-05-13T19:58:05.196Z,13.08
2019-05-13T20:00:14.201Z,12.00
2019-05-13T20:02:22.305Z,10.80
2019-05-13T20:04:31.146Z,9.20
2019-05-13T20:06:38.418Z,8.20
2019-05-13T20:08:45.925Z,7.47
2019-05-13T20:10:52.452Z,5.12
2019-05-13T20:12:59.052Z,5.78
2019-05-13T20:15:08.040Z,4.78
2019-05-13T20:17:14.570Z,3.40
2019-05-13T20:19:22.373Z,3.02
2019-05-13T20:21:31.738Z,3.20
2019-05-13T20:23:37.331Z,3.33
2019-05-13T20:25:43.898Z,3.05
2019-05-13T20:27:51.548Z,5.22
2019-05-13T20:29:58.250Z,4.85
2019-05-13T20:32:04.855Z,3.08
2019-05-13T20:34:12.012Z,3.00
2019-05-13T20:36:23.172Z,2.72
2019-05-13T20:38:31.724Z,3.00
2019-05-13T20:40:41.318Z,2.87
2019-05-13T20:42:47.298Z,3.00
2019-05-13T20:44:53.881Z,3.10
2019-05-13T20:47:01.582Z,3.83
2019-05-13T20:49:12.060Z,4.28
2019-05-13T20:51:18.224Z,4.17
2019-05-13T20:53:24.842Z,4.62
2019-05-13T20:55:32.098Z,4.50
2019-05-13T20:57:38.832Z,5.30
2019-05-13T20:59:45.386Z,6.65
2019-05-13T21:01:53.091Z,6.65
2019-05-13T21:04:01.657Z,6.40
2019-05-13T21:06:07.744Z,6.67
2019-05-13T21:08:14.153Z,6.25
2019-05-13T21:10:21.272Z,6.35
2019-05-13T21:12:27.850Z,5.28
2019-05-13T21:14:34.784Z,9.90
2019-05-13T21:16:41.798Z,6.78
2019-05-13T21:18:48.340Z,8.13
2019-05-13T21:20:54.874Z,4.20
2019-05-13T21:23:02.296Z,4.08
2019-05-13T21:25:09.299Z,4.15
2019-05-13T21:27:17.231Z,4.78
2019-05-13T21:29:23.688Z,4.75
2019-05-13T21:31:30.200Z,5.15
2019-05-13T21:33:36.668Z,5.87
2019-05-13T21:35:43.122Z,4.97
2019-05-13T21:37:51.176Z,5.80
2019-05-13T21:39:57.841Z,6.00
2019-05-13T21:42:04.457Z,5.85
2019-05-13T21:44:11.970Z,6.75
2019-05-13T21:46:18.647Z,6.92
2019-05-13T21:48:25.039Z,7.22
2019-05-13T21:50:37.023Z,6.92
2019-05-13T21:52:41.788Z,7.57
2019-05-13T21:54:51.496Z,7.03
2019-05-13T21:56:57.602Z,7.37
2019-05-13T21:59:05.648Z,8.30
2019-05-13T22:01:12.259Z,7.70
2019-05-13T22:03:18.914Z,7.12
2019-05-13T22:05:25.537Z,7.60
2019-05-13T22:07:32.072Z,8.00
2019-05-13T22:09:38.573Z,8.38
2019-05-13T22:11:45.040Z,7.30
2019-05-13T22:13:51.601Z,8.10
2019-05-13T22:15:58.033Z,7.53
2019-05-13T22:18:04.769Z,9.05
2019-05-13T22:20:12.220Z,8.75
2019-05-13T22:22:18.904Z,8.60
2019-05-13T22:24:25.472Z,8.25
2019-05-13T22:26:31.956Z,8.08
2019-05-13T22:28:38.425Z,8.95
2019-05-13T22:30:45.002Z,9.35
2019-05-13T22:32:52.347Z,9.30
2019-05-13T22:35:01.891Z,10.15
2019-05-13T22:37:08.362Z,9.85
2019-05-13T22:39:14.896Z,9.58
2019-05-13T22:41:22.218Z,10.10
2019-05-13T22:43:28.972Z,11.22
2019-05-13T22:45:35.526Z,10.55
2019-05-13T22:47:42.291Z,11.15
2019-05-13T22:49:48.751Z,10.30
2019-05-13T22:51:55.266Z,11.12
2019-05-13T22:54:01.870Z,11.05
2019-05-13T22:56:08.538Z,11.40
2019-05-13T22:58:15.091Z,12.07
2019-05-13T23:00:22.349Z,12.28
2019-05-13T23:02:29.168Z,10.95
2019-05-13T23:04:35.870Z,12.90
2019-05-13T23:06:42.369Z,11.68
2019-05-13T23:08:48.898Z,12.70
2019-05-13T23:10:55.294Z,12.88
2019-05-13T23:13:02.259Z,11.83
2019-05-13T23:15:11.773Z,12.63
2019-05-13T23:17:17.735Z,12.35
2019-05-13T23:19:24.213Z,13.88
2019-05-13T23:21:31.292Z,12.28
2019-05-13T23:23:39.267Z,11.50
2019-05-13T23:25:45.840Z,13.62
2019-05-13T23:27:52.339Z,12.15
2019-05-13T23:30:00.995Z,12.88
2019-05-13T23:32:07.205Z,12.43
2019-05-13T23:34:13.627Z,11.95
2019-05-13T23:36:21.092Z,13.25
2019-05-13T23:38:27.715Z,11.68
2019-05-13T23:40:34.213Z,12.30
2019-05-13T23:42:40.785Z,12.55
2019-05-13T23:44:47.321Z,13.03
2019-05-13T23:46:53.968Z,12.30
2019-05-13T23:49:01.249Z,12.03
2019-05-13T23:51:08.896Z,12.98
2019-05-13T23:53:15.341Z,13.13
2019-05-13T23:55:22.601Z,13.22
2019-05-13T23:57:31.370Z,13.13
2019-05-13T23:59:39.096Z,13.22
